sensor_id;sensor_type;location;lat;lon;timestamp;P1;durP1;ratioP1;P2;durP2;ratioP2
27800;SDS011;15181;49.112;11.930;2022-12-10T00:00:42;34.45;;;31.35;;
27800;SDS011;15181;49.112;11.930;2022-12-10T00:03:09;39.78;;;35.95;;
27800;SDS011;15181;49.112;11.930;2022-12-10T00:05:36;34.92;;;31.73;;
27800;SDS011;15181;49.112;11.930;2022-12-10T00:08:04;34.78;;;31.50;;
27800;SDS011;15181;49.112;11.930;2022-12-10T00:10:31;35.45;;;32.22;;
27800;SDS011;15181;49.112;11.930;2022-12-10T00:12:58;33.80;;;30.85;;
27800;SDS011;15181;49.112;11.930;2022-12-10T00:15:25;37.03;;;33.35;;
27800;SDS011;15181;49.112;11.930;2022-12-10T00:17:52;34.28;;;31.25;;
27800;SDS011;15181;49.112;11.930;2022-12-10T00:20:19;35.13;;;31.92;;
27800;SDS011;15181;49.112;11.930;2022-12-10T00:22:46;36.47;;;33.05;;
27800;SDS011;15181;49.112;11.930;2022-12-10T00:25:14;35.70;;;32.33;;
27800;SDS011;15181;49.112;11.930;2022-12-10T00:27:41;36.67;;;33.38;;
27800;SDS011;15181;49.112;11.930;2022-12-10T00:30:09;35.28;;;32.08;;
27800;SDS011;15181;49.112;11.930;2022-12-10T00:32:36;36.10;;;32.80;;
27800;SDS011;15181;49.112;11.930;2022-12-10T00:35:03;34.92;;;31.85;;
27800;SDS011;15181;49.112;11.930;2022-12-10T00:37:31;36.33;;;32.90;;
27800;SDS011;15181;49.112;11.930;2022-12-10T00:39:59;37.08;;;33.53;;
27800;SDS011;15181;49.112;11.930;2022-12-10T00:42:27;36.78;;;33.22;;
27800;SDS011;15181;49.112;11.930;2022-12-10T00:44:54;38.05;;;34.45;;
27800;SDS011;15181;49.112;11.930;2022-12-10T00:47:21;38.53;;;35.03;;
27800;SDS011;15181;49.112;11.930;2022-12-10T00:49:48;36.47;;;33.08;;
27800;SDS011;15181;49.112;11.930;2022-12-10T00:52:15;37.13;;;33.72;;
27800;SDS011;15181;49.112;11.930;2022-12-10T00:54:41;37.20;;;33.90;;
27800;SDS011;15181;49.112;11.930;2022-12-10T00:57:08;36.63;;;33.22;;
27800;SDS011;15181;49.112;11.930;2022-12-10T00:59:37;38.17;;;34.60;;
27800;SDS011;15181;49.112;11.930;2022-12-10T01:02:04;35.97;;;32.53;;
27800;SDS011;15181;49.112;11.930;2022-12-10T01:04:30;35.30;;;32.10;;
27800;SDS011;15181;49.112;11.930;2022-12-10T01:06:57;35.13;;;32.03;;
27800;SDS011;15181;49.112;11.930;2022-12-10T01:09:25;37.10;;;33.75;;
27800;SDS011;15181;49.112;11.930;2022-12-10T01:11:54;36.47;;;33.17;;
27800;SDS011;15181;49.112;11.930;2022-12-10T01:14:23;38.08;;;34.45;;
27800;SDS011;15181;49.112;11.930;2022-12-10T01:16:54;37.38;;;33.78;;
27800;SDS011;15181;49.112;11.930;2022-12-10T01:19:23;35.90;;;32.40;;
27800;SDS011;15181;49.112;11.930;2022-12-10T01:21:51;37.92;;;34.42;;
27800;SDS011;15181;49.112;11.930;2022-12-10T01:24:18;38.28;;;34.63;;
27800;SDS011;15181;49.112;11.930;2022-12-10T01:26:45;37.60;;;33.95;;
27800;SDS011;15181;49.112;11.930;2022-12-10T01:29:12;40.38;;;36.45;;
27800;SDS011;15181;49.112;11.930;2022-12-10T01:31:39;39.95;;;36.20;;
27800;SDS011;15181;49.112;11.930;2022-12-10T01:34:10;39.15;;;35.47;;
27800;SDS011;15181;49.112;11.930;2022-12-10T01:36:39;39.97;;;36.05;;
27800;SDS011;15181;49.112;11.930;2022-12-10T01:39:08;41.95;;;38.00;;
27800;SDS011;15181;49.112;11.930;2022-12-10T01:41:37;40.42;;;36.63;;
27800;SDS011;15181;49.112;11.930;2022-12-10T01:47:06;39.70;;;35.90;;
27800;SDS011;15181;49.112;11.930;2022-12-10T01:49:35;41.63;;;37.65;;
27800;SDS011;15181;49.112;11.930;2022-12-10T01:52:04;41.33;;;37.33;;
27800;SDS011;15181;49.112;11.930;2022-12-10T01:54:35;40.35;;;36.53;;
27800;SDS011;15181;49.112;11.930;2022-12-10T01:57:04;39.65;;;35.92;;
27800;SDS011;15181;49.112;11.930;2022-12-10T01:59:33;40.22;;;36.22;;
27800;SDS011;15181;49.112;11.930;2022-12-10T02:02:03;39.70;;;35.90;;
27800;SDS011;15181;49.112;11.930;2022-12-10T02:04:38;39.70;;;35.75;;
27800;SDS011;15181;49.112;11.930;2022-12-10T02:07:12;39.80;;;35.92;;
27800;SDS011;15181;49.112;11.930;2022-12-10T02:09:45;38.88;;;35.15;;
27800;SDS011;15181;49.112;11.930;2022-12-10T02:12:19;37.97;;;34.53;;
27800;SDS011;15181;49.112;11.930;2022-12-10T02:14:51;39.40;;;35.60;;
27800;SDS011;15181;49.112;11.930;2022-12-10T02:17:22;39.22;;;35.45;;
27800;SDS011;15181;49.112;11.930;2022-12-10T02:22:42;39.85;;;36.17;;
27800;SDS011;15181;49.112;11.930;2022-12-10T02:25:13;39.47;;;35.78;;
27800;SDS011;15181;49.112;11.930;2022-12-10T02:27:44;40.15;;;36.20;;
27800;SDS011;15181;49.112;11.930;2022-12-10T02:30:16;39.58;;;35.80;;
27800;SDS011;15181;49.112;11.930;2022-12-10T02:32:44;41.08;;;37.08;;
27800;SDS011;15181;49.112;11.930;2022-12-10T02:35:15;40.80;;;37.00;;
27800;SDS011;15181;49.112;11.930;2022-12-10T02:37:47;40.53;;;36.25;;
27800;SDS011;15181;49.112;11.930;2022-12-10T02:40:18;39.97;;;36.15;;
27800;SDS011;15181;49.112;11.930;2022-12-10T02:42:49;40.08;;;36.08;;
27800;SDS011;15181;49.112;11.930;2022-12-10T02:45:18;41.10;;;36.90;;
27800;SDS011;15181;49.112;11.930;2022-12-10T02:47:48;39.95;;;36.17;;
27800;SDS011;15181;49.112;11.930;2022-12-10T02:50:24;40.25;;;36.38;;
27800;SDS011;15181;49.112;11.930;2022-12-10T02:52:52;39.38;;;35.63;;
27800;SDS011;15181;49.112;11.930;2022-12-10T02:55:18;39.70;;;35.92;;
27800;SDS011;15181;49.112;11.930;2022-12-10T02:57:49;39.28;;;35.45;;
27800;SDS011;15181;49.112;11.930;2022-12-10T03:00:27;39.03;;;35.33;;
27800;SDS011;15181;49.112;11.930;2022-12-10T03:03:03;40.17;;;36.35;;
27800;SDS011;15181;49.112;11.930;2022-12-10T03:05:58;38.90;;;35.15;;
27800;SDS011;15181;49.112;11.930;2022-12-10T03:08:32;37.55;;;33.95;;
27800;SDS011;15181;49.112;11.930;2022-12-10T03:11:05;38.25;;;34.75;;
27800;SDS011;15181;49.112;11.930;2022-12-10T03:13:37;40.78;;;36.90;;
27800;SDS011;15181;49.112;11.930;2022-12-10T03:16:09;38.95;;;35.25;;
27800;SDS011;15181;49.112;11.930;2022-12-10T03:18:38;38.60;;;35.00;;
27800;SDS011;15181;49.112;11.930;2022-12-10T03:21:06;38.88;;;35.20;;
27800;SDS011;15181;49.112;11.930;2022-12-10T03:23:35;39.55;;;35.88;;
27800;SDS011;15181;49.112;11.930;2022-12-10T03:26:05;40.85;;;37.03;;
27800;SDS011;15181;49.112;11.930;2022-12-10T03:28:34;39.20;;;35.60;;
27800;SDS011;15181;49.112;11.930;2022-12-10T03:31:04;41.20;;;36.92;;
27800;SDS011;15181;49.112;11.930;2022-12-10T03:33:35;40.10;;;36.35;;
27800;SDS011;15181;49.112;11.930;2022-12-10T03:36:03;39.70;;;36.05;;
27800;SDS011;15181;49.112;11.930;2022-12-10T03:38:30;39.03;;;35.45;;
27800;SDS011;15181;49.112;11.930;2022-12-10T03:40:58;39.45;;;35.65;;
27800;SDS011;15181;49.112;11.930;2022-12-10T03:43:25;41.88;;;37.65;;
27800;SDS011;15181;49.112;11.930;2022-12-10T03:45:52;39.85;;;36.22;;
27800;SDS011;15181;49.112;11.930;2022-12-10T03:48:19;41.13;;;37.40;;
27800;SDS011;15181;49.112;11.930;2022-12-10T03:50:47;41.53;;;37.72;;
27800;SDS011;15181;49.112;11.930;2022-12-10T03:53:14;41.53;;;37.35;;
27800;SDS011;15181;49.112;11.930;2022-12-10T03:55:41;41.72;;;37.47;;
27800;SDS011;15181;49.112;11.930;2022-12-10T03:58:07;41.78;;;37.63;;
27800;SDS011;15181;49.112;11.930;2022-12-10T04:00:34;41.22;;;37.50;;
27800;SDS011;15181;49.112;11.930;2022-12-10T04:03:01;41.55;;;37.55;;
27800;SDS011;15181;49.112;11.930;2022-12-10T04:05:28;41.78;;;37.67;;
27800;SDS011;15181;49.112;11.930;2022-12-10T04:07:56;42.15;;;38.25;;
27800;SDS011;15181;49.112;11.930;2022-12-10T04:10:23;40.28;;;36.47;;
27800;SDS011;15181;49.112;11.930;2022-12-10T04:12:50;41.40;;;37.53;;
27800;SDS011;15181;49.112;11.930;2022-12-10T04:15:31;42.70;;;38.50;;
27800;SDS011;15181;49.112;11.930;2022-12-10T04:18:15;41.58;;;37.75;;
27800;SDS011;15181;49.112;11.930;2022-12-10T04:20:42;42.25;;;38.15;;
27800;SDS011;15181;49.112;11.930;2022-12-10T04:23:27;41.42;;;37.15;;
27800;SDS011;15181;49.112;11.930;2022-12-10T04:26:12;39.85;;;36.15;;
27800;SDS011;15181;49.112;11.930;2022-12-10T04:28:56;40.25;;;36.45;;
27800;SDS011;15181;49.112;11.930;2022-12-10T04:31:23;41.40;;;37.42;;
27800;SDS011;15181;49.112;11.930;2022-12-10T04:33:50;41.28;;;37.25;;
27800;SDS011;15181;49.112;11.930;2022-12-10T04:36:17;42.58;;;38.28;;
27800;SDS011;15181;49.112;11.930;2022-12-10T04:38:45;40.80;;;36.92;;
27800;SDS011;15181;49.112;11.930;2022-12-10T04:41:12;42.92;;;38.92;;
27800;SDS011;15181;49.112;11.930;2022-12-10T04:43:40;40.83;;;36.85;;
27800;SDS011;15181;49.112;11.930;2022-12-10T04:46:07;38.80;;;35.20;;
27800;SDS011;15181;49.112;11.930;2022-12-10T04:48:34;41.22;;;37.47;;
27800;SDS011;15181;49.112;11.930;2022-12-10T04:51:01;42.33;;;38.35;;
27800;SDS011;15181;49.112;11.930;2022-12-10T04:53:28;41.30;;;37.47;;
27800;SDS011;15181;49.112;11.930;2022-12-10T04:55:56;42.40;;;38.40;;
27800;SDS011;15181;49.112;11.930;2022-12-10T04:58:23;41.25;;;37.35;;
27800;SDS011;15181;49.112;11.930;2022-12-10T05:01:00;40.47;;;36.67;;
27800;SDS011;15181;49.112;11.930;2022-12-10T05:03:27;41.92;;;38.15;;
27800;SDS011;15181;49.112;11.930;2022-12-10T05:05:54;42.50;;;38.42;;
27800;SDS011;15181;49.112;11.930;2022-12-10T05:08:21;43.67;;;39.25;;
27800;SDS011;15181;49.112;11.930;2022-12-10T05:10:48;46.28;;;41.58;;
27800;SDS011;15181;49.112;11.930;2022-12-10T05:13:16;42.95;;;38.58;;
27800;SDS011;15181;49.112;11.930;2022-12-10T05:15:43;42.53;;;38.33;;
27800;SDS011;15181;49.112;11.930;2022-12-10T05:18:10;44.58;;;40.17;;
27800;SDS011;15181;49.112;11.930;2022-12-10T05:20:37;43.55;;;39.38;;
27800;SDS011;15181;49.112;11.930;2022-12-10T05:23:04;42.75;;;38.63;;
27800;SDS011;15181;49.112;11.930;2022-12-10T05:25:48;41.63;;;37.53;;
27800;SDS011;15181;49.112;11.930;2022-12-10T05:28:20;38.95;;;35.35;;
27800;SDS011;15181;49.112;11.930;2022-12-10T05:30:48;42.08;;;37.75;;
27800;SDS011;15181;49.112;11.930;2022-12-10T05:33:15;43.63;;;39.05;;
27800;SDS011;15181;49.112;11.930;2022-12-10T05:35:41;43.78;;;39.17;;
27800;SDS011;15181;49.112;11.930;2022-12-10T05:38:08;43.28;;;39.05;;
27800;SDS011;15181;49.112;11.930;2022-12-10T05:40:35;44.17;;;39.70;;
27800;SDS011;15181;49.112;11.930;2022-12-10T05:43:03;43.08;;;38.80;;
27800;SDS011;15181;49.112;11.930;2022-12-10T05:45:32;45.08;;;40.60;;
27800;SDS011;15181;49.112;11.930;2022-12-10T05:47:59;45.17;;;40.53;;
27800;SDS011;15181;49.112;11.930;2022-12-10T05:50:26;46.95;;;42.15;;
27800;SDS011;15181;49.112;11.930;2022-12-10T05:52:54;47.10;;;42.10;;
27800;SDS011;15181;49.112;11.930;2022-12-10T05:55:20;49.55;;;44.50;;
27800;SDS011;15181;49.112;11.930;2022-12-10T05:57:47;46.75;;;42.00;;
27800;SDS011;15181;49.112;11.930;2022-12-10T06:00:14;46.95;;;42.15;;
27800;SDS011;15181;49.112;11.930;2022-12-10T06:02:43;45.83;;;41.13;;
27800;SDS011;15181;49.112;11.930;2022-12-10T06:05:10;46.90;;;42.00;;
27800;SDS011;15181;49.112;11.930;2022-12-10T06:07:37;47.50;;;42.58;;
27800;SDS011;15181;49.112;11.930;2022-12-10T06:10:04;46.30;;;41.58;;
27800;SDS011;15181;49.112;11.930;2022-12-10T06:12:31;47.20;;;42.33;;
27800;SDS011;15181;49.112;11.930;2022-12-10T06:14:58;46.70;;;41.80;;
27800;SDS011;15181;49.112;11.930;2022-12-10T06:17:24;47.75;;;42.83;;
27800;SDS011;15181;49.112;11.930;2022-12-10T06:19:53;48.22;;;43.20;;
27800;SDS011;15181;49.112;11.930;2022-12-10T06:22:20;46.30;;;41.42;;
27800;SDS011;15181;49.112;11.930;2022-12-10T06:24:46;46.72;;;41.83;;
27800;SDS011;15181;49.112;11.930;2022-12-10T06:27:13;49.00;;;43.83;;
27800;SDS011;15181;49.112;11.930;2022-12-10T06:29:40;46.83;;;42.03;;
27800;SDS011;15181;49.112;11.930;2022-12-10T06:32:07;45.50;;;40.75;;
27800;SDS011;15181;49.112;11.930;2022-12-10T06:34:34;48.05;;;43.05;;
27800;SDS011;15181;49.112;11.930;2022-12-10T06:37:02;46.78;;;41.90;;
27800;SDS011;15181;49.112;11.930;2022-12-10T06:39:29;45.78;;;40.97;;
27800;SDS011;15181;49.112;11.930;2022-12-10T06:41:56;47.50;;;42.80;;
27800;SDS011;15181;49.112;11.930;2022-12-10T06:44:23;46.60;;;41.85;;
27800;SDS011;15181;49.112;11.930;2022-12-10T06:46:50;48.47;;;43.50;;
27800;SDS011;15181;49.112;11.930;2022-12-10T06:49:16;46.35;;;41.53;;
27800;SDS011;15181;49.112;11.930;2022-12-10T06:51:43;45.72;;;40.88;;
27800;SDS011;15181;49.112;11.930;2022-12-10T06:54:12;48.80;;;43.65;;
27800;SDS011;15181;49.112;11.930;2022-12-10T06:56:39;46.22;;;41.47;;
27800;SDS011;15181;49.112;11.930;2022-12-10T06:59:06;46.45;;;41.55;;
27800;SDS011;15181;49.112;11.930;2022-12-10T07:01:33;44.60;;;40.20;;
27800;SDS011;15181;49.112;11.930;2022-12-10T07:03:59;47.53;;;42.58;;
27800;SDS011;15181;49.112;11.930;2022-12-10T07:06:26;47.22;;;42.10;;
27800;SDS011;15181;49.112;11.930;2022-12-10T07:08:54;48.53;;;43.38;;
27800;SDS011;15181;49.112;11.930;2022-12-10T07:11:22;47.55;;;42.67;;
27800;SDS011;15181;49.112;11.930;2022-12-10T07:13:50;46.47;;;41.67;;
27800;SDS011;15181;49.112;11.930;2022-12-10T07:16:18;47.35;;;41.33;;
27800;SDS011;15181;49.112;11.930;2022-12-10T07:18:47;47.60;;;42.72;;
27800;SDS011;15181;49.112;11.930;2022-12-10T07:21:15;44.45;;;39.97;;
27800;SDS011;15181;49.112;11.930;2022-12-10T07:23:43;45.38;;;40.65;;
27800;SDS011;15181;49.112;11.930;2022-12-10T07:26:10;45.85;;;40.95;;
27800;SDS011;15181;49.112;11.930;2022-12-10T07:28:38;45.22;;;40.42;;
27800;SDS011;15181;49.112;11.930;2022-12-10T07:31:07;44.95;;;40.67;;
27800;SDS011;15181;49.112;11.930;2022-12-10T07:33:35;45.10;;;40.53;;
27800;SDS011;15181;49.112;11.930;2022-12-10T07:36:03;45.10;;;40.65;;
27800;SDS011;15181;49.112;11.930;2022-12-10T07:38:30;45.55;;;40.90;;
27800;SDS011;15181;49.112;11.930;2022-12-10T07:40:57;44.40;;;39.72;;
27800;SDS011;15181;49.112;11.930;2022-12-10T07:43:27;46.80;;;41.92;;
27800;SDS011;15181;49.112;11.930;2022-12-10T07:45:56;44.10;;;39.40;;
27800;SDS011;15181;49.112;11.930;2022-12-10T07:48:29;45.55;;;40.85;;
27800;SDS011;15181;49.112;11.930;2022-12-10T07:50:56;43.17;;;38.53;;
27800;SDS011;15181;49.112;11.930;2022-12-10T07:53:23;42.92;;;38.50;;
27800;SDS011;15181;49.112;11.930;2022-12-10T07:55:50;42.38;;;38.08;;
27800;SDS011;15181;49.112;11.930;2022-12-10T07:58:17;41.42;;;37.22;;
27800;SDS011;15181;49.112;11.930;2022-12-10T08:00:44;42.45;;;38.15;;
27800;SDS011;15181;49.112;11.930;2022-12-10T08:03:12;43.45;;;39.00;;
27800;SDS011;15181;49.112;11.930;2022-12-10T08:05:39;43.63;;;39.17;;
27800;SDS011;15181;49.112;11.930;2022-12-10T08:08:06;41.97;;;37.70;;
27800;SDS011;15181;49.112;11.930;2022-12-10T08:10:33;44.22;;;39.75;;
27800;SDS011;15181;49.112;11.930;2022-12-10T08:13:01;43.97;;;39.58;;
27800;SDS011;15181;49.112;11.930;2022-12-10T08:15:28;44.97;;;40.42;;
27800;SDS011;15181;49.112;11.930;2022-12-10T08:17:55;46.03;;;41.53;;
27800;SDS011;15181;49.112;11.930;2022-12-10T08:20:24;44.55;;;40.28;;
27800;SDS011;15181;49.112;11.930;2022-12-10T08:22:51;43.10;;;38.58;;
27800;SDS011;15181;49.112;11.930;2022-12-10T08:25:18;44.70;;;40.15;;
27800;SDS011;15181;49.112;11.930;2022-12-10T08:27:45;42.70;;;38.28;;
27800;SDS011;15181;49.112;11.930;2022-12-10T08:30:12;41.33;;;37.30;;
27800;SDS011;15181;49.112;11.930;2022-12-10T08:32:39;45.50;;;40.60;;
27800;SDS011;15181;49.112;11.930;2022-12-10T08:35:06;44.35;;;39.75;;
27800;SDS011;15181;49.112;11.930;2022-12-10T08:37:35;43.83;;;39.22;;
27800;SDS011;15181;49.112;11.930;2022-12-10T08:40:02;44.83;;;40.10;;
27800;SDS011;15181;49.112;11.930;2022-12-10T08:42:29;42.80;;;38.35;;
27800;SDS011;15181;49.112;11.930;2022-12-10T08:44:56;43.63;;;39.05;;
27800;SDS011;15181;49.112;11.930;2022-12-10T08:47:23;42.90;;;38.38;;
27800;SDS011;15181;49.112;11.930;2022-12-10T08:49:50;43.78;;;39.38;;
27800;SDS011;15181;49.112;11.930;2022-12-10T08:52:17;42.45;;;38.20;;
27800;SDS011;15181;49.112;11.930;2022-12-10T08:54:45;45.63;;;40.95;;
27800;SDS011;15181;49.112;11.930;2022-12-10T08:57:12;43.45;;;38.95;;
27800;SDS011;15181;49.112;11.930;2022-12-10T08:59:39;43.40;;;38.65;;
27800;SDS011;15181;49.112;11.930;2022-12-10T09:02:07;44.33;;;39.72;;
27800;SDS011;15181;49.112;11.930;2022-12-10T09:04:36;44.97;;;40.53;;
27800;SDS011;15181;49.112;11.930;2022-12-10T09:07:04;44.25;;;39.80;;
27800;SDS011;15181;49.112;11.930;2022-12-10T09:09:31;45.95;;;41.00;;
27800;SDS011;15181;49.112;11.930;2022-12-10T09:11:59;44.17;;;39.60;;
27800;SDS011;15181;49.112;11.930;2022-12-10T09:14:26;43.58;;;38.90;;
27800;SDS011;15181;49.112;11.930;2022-12-10T09:16:53;44.05;;;39.45;;
27800;SDS011;15181;49.112;11.930;2022-12-10T09:19:20;45.13;;;40.35;;
27800;SDS011;15181;49.112;11.930;2022-12-10T09:21:47;43.85;;;39.08;;
27800;SDS011;15181;49.112;11.930;2022-12-10T09:24:14;45.22;;;40.33;;
27800;SDS011;15181;49.112;11.930;2022-12-10T09:26:41;42.97;;;38.60;;
27800;SDS011;15181;49.112;11.930;2022-12-10T09:29:09;43.85;;;39.28;;
27800;SDS011;15181;49.112;11.930;2022-12-10T09:31:36;43.20;;;38.72;;
27800;SDS011;15181;49.112;11.930;2022-12-10T09:34:03;44.42;;;39.72;;
27800;SDS011;15181;49.112;11.930;2022-12-10T09:36:30;42.97;;;38.58;;
27800;SDS011;15181;49.112;11.930;2022-12-10T09:38:57;44.17;;;39.67;;
27800;SDS011;15181;49.112;11.930;2022-12-10T09:41:34;43.58;;;39.28;;
27800;SDS011;15181;49.112;11.930;2022-12-10T09:44:19;44.25;;;39.63;;
27800;SDS011;15181;49.112;11.930;2022-12-10T09:46:53;45.40;;;40.53;;
27800;SDS011;15181;49.112;11.930;2022-12-10T09:49:25;44.92;;;40.20;;
27800;SDS011;15181;49.112;11.930;2022-12-10T09:52:04;43.65;;;39.30;;
27800;SDS011;15181;49.112;11.930;2022-12-10T09:54:38;44.10;;;39.50;;
27800;SDS011;15181;49.112;11.930;2022-12-10T09:57:10;46.35;;;41.30;;
27800;SDS011;15181;49.112;11.930;2022-12-10T09:59:46;45.17;;;38.33;;
27800;SDS011;15181;49.112;11.930;2022-12-10T10:02:18;42.00;;;37.80;;
27800;SDS011;15181;49.112;11.930;2022-12-10T10:04:48;42.30;;;38.00;;
27800;SDS011;15181;49.112;11.930;2022-12-10T10:07:17;43.88;;;39.15;;
27800;SDS011;15181;49.112;11.930;2022-12-10T10:09:47;44.28;;;39.67;;
27800;SDS011;15181;49.112;11.930;2022-12-10T10:12:15;42.28;;;36.75;;
27800;SDS011;15181;49.112;11.930;2022-12-10T10:14:42;44.40;;;39.70;;
27800;SDS011;15181;49.112;11.930;2022-12-10T10:17:11;42.60;;;38.33;;
27800;SDS011;15181;49.112;11.930;2022-12-10T10:22:11;40.42;;;36.30;;
27800;SDS011;15181;49.112;11.930;2022-12-10T10:24:39;43.10;;;38.67;;
27800;SDS011;15181;49.112;11.930;2022-12-10T10:27:10;41.67;;;37.58;;
27800;SDS011;15181;49.112;11.930;2022-12-10T10:29:39;41.88;;;37.70;;
27800;SDS011;15181;49.112;11.930;2022-12-10T10:32:16;42.97;;;38.67;;
27800;SDS011;15181;49.112;11.930;2022-12-10T10:34:45;43.08;;;38.60;;
27800;SDS011;15181;49.112;11.930;2022-12-10T10:37:15;40.05;;;36.15;;
27800;SDS011;15181;49.112;11.930;2022-12-10T10:39:47;42.78;;;38.38;;
27800;SDS011;15181;49.112;11.930;2022-12-10T10:42:20;40.50;;;36.50;;
27800;SDS011;15181;49.112;11.930;2022-12-10T10:44:54;39.53;;;35.50;;
27800;SDS011;15181;49.112;11.930;2022-12-10T10:47:26;41.60;;;37.33;;
27800;SDS011;15181;49.112;11.930;2022-12-10T10:49:54;43.28;;;38.83;;
27800;SDS011;15181;49.112;11.930;2022-12-10T10:52:21;39.70;;;35.75;;
27800;SDS011;15181;49.112;11.930;2022-12-10T10:54:48;40.25;;;36.17;;
27800;SDS011;15181;49.112;11.930;2022-12-10T10:57:19;41.58;;;37.30;;
27800;SDS011;15181;49.112;11.930;2022-12-10T10:59:50;41.90;;;37.80;;
27800;SDS011;15181;49.112;11.930;2022-12-10T11:02:20;38.50;;;34.80;;
27800;SDS011;15181;49.112;11.930;2022-12-10T11:04:52;40.67;;;36.75;;
27800;SDS011;15181;49.112;11.930;2022-12-10T11:07:21;40.85;;;36.80;;
27800;SDS011;15181;49.112;11.930;2022-12-10T11:09:52;40.60;;;36.58;;
27800;SDS011;15181;49.112;11.930;2022-12-10T11:12:22;40.95;;;36.80;;
27800;SDS011;15181;49.112;11.930;2022-12-10T11:15:01;42.05;;;37.88;;
27800;SDS011;15181;49.112;11.930;2022-12-10T11:17:42;40.83;;;36.67;;
27800;SDS011;15181;49.112;11.930;2022-12-10T11:20:17;40.88;;;36.78;;
27800;SDS011;15181;49.112;11.930;2022-12-10T11:22:48;41.92;;;37.92;;
27800;SDS011;15181;49.112;11.930;2022-12-10T11:25:16;42.15;;;37.78;;
27800;SDS011;15181;49.112;11.930;2022-12-10T11:27:47;41.67;;;37.40;;
27800;SDS011;15181;49.112;11.930;2022-12-10T11:30:22;41.97;;;37.63;;
27800;SDS011;15181;49.112;11.930;2022-12-10T11:35:50;43.65;;;39.20;;
27800;SDS011;15181;49.112;11.930;2022-12-10T11:38:26;41.28;;;37.28;;
27800;SDS011;15181;49.112;11.930;2022-12-10T11:40:58;38.38;;;34.47;;
27800;SDS011;15181;49.112;11.930;2022-12-10T11:43:38;38.83;;;34.95;;
27800;SDS011;15181;49.112;11.930;2022-12-10T11:46:14;39.00;;;35.30;;
27800;SDS011;15181;49.112;11.930;2022-12-10T11:48:55;39.63;;;35.67;;
27800;SDS011;15181;49.112;11.930;2022-12-10T11:51:38;37.53;;;33.90;;
27800;SDS011;15181;49.112;11.930;2022-12-10T11:54:19;36.22;;;32.92;;
27800;SDS011;15181;49.112;11.930;2022-12-10T11:57:13;39.90;;;35.90;;
27800;SDS011;15181;49.112;11.930;2022-12-10T11:59:47;37.20;;;33.75;;
27800;SDS011;15181;49.112;11.930;2022-12-10T12:02:25;37.33;;;33.80;;
27800;SDS011;15181;49.112;11.930;2022-12-10T12:05:07;37.65;;;33.95;;
27800;SDS011;15181;49.112;11.930;2022-12-10T12:07:48;38.58;;;34.75;;
27800;SDS011;15181;49.112;11.930;2022-12-10T12:13:22;37.75;;;34.35;;
27800;SDS011;15181;49.112;11.930;2022-12-10T12:15:52;42.00;;;37.92;;
27800;SDS011;15181;49.112;11.930;2022-12-10T12:18:25;36.10;;;32.72;;
27800;SDS011;15181;49.112;11.930;2022-12-10T12:20:57;34.35;;;31.08;;
27800;SDS011;15181;49.112;11.930;2022-12-10T12:23:28;37.35;;;33.90;;
27800;SDS011;15181;49.112;11.930;2022-12-10T12:26:00;36.20;;;32.83;;
27800;SDS011;15181;49.112;11.930;2022-12-10T12:28:31;37.05;;;33.50;;
27800;SDS011;15181;49.112;11.930;2022-12-10T12:31:02;35.60;;;32.40;;
27800;SDS011;15181;49.112;11.930;2022-12-10T12:33:35;36.65;;;33.25;;
27800;SDS011;15181;49.112;11.930;2022-12-10T12:36:08;37.17;;;33.83;;
27800;SDS011;15181;49.112;11.930;2022-12-10T12:38:43;34.90;;;31.63;;
27800;SDS011;15181;49.112;11.930;2022-12-10T12:43:49;33.55;;;30.52;;
27800;SDS011;15181;49.112;11.930;2022-12-10T12:46:24;34.05;;;30.85;;
27800;SDS011;15181;49.112;11.930;2022-12-10T12:48:57;34.22;;;30.92;;
27800;SDS011;15181;49.112;11.930;2022-12-10T12:51:29;34.33;;;31.13;;
27800;SDS011;15181;49.112;11.930;2022-12-10T12:54:02;34.63;;;31.50;;
27800;SDS011;15181;49.112;11.930;2022-12-10T12:56:34;34.15;;;31.05;;
27800;SDS011;15181;49.112;11.930;2022-12-10T12:59:22;36.00;;;32.50;;
27800;SDS011;15181;49.112;11.930;2022-12-10T13:02:02;35.50;;;32.05;;
27800;SDS011;15181;49.112;11.930;2022-12-10T13:04:41;33.10;;;29.90;;
27800;SDS011;15181;49.112;11.930;2022-12-10T13:07:19;33.58;;;30.48;;
27800;SDS011;15181;49.112;11.930;2022-12-10T13:10:09;33.95;;;30.85;;
27800;SDS011;15181;49.112;11.930;2022-12-10T13:12:48;34.60;;;31.45;;
27800;SDS011;15181;49.112;11.930;2022-12-10T13:15:19;33.28;;;30.27;;
27800;SDS011;15181;49.112;11.930;2022-12-10T13:18:04;33.30;;;30.25;;
27800;SDS011;15181;49.112;11.930;2022-12-10T13:23:52;33.17;;;30.13;;
27800;SDS011;15181;49.112;11.930;2022-12-10T13:26:25;33.70;;;30.50;;
27800;SDS011;15181;49.112;11.930;2022-12-10T13:28:54;31.88;;;29.20;;
27800;SDS011;15181;49.112;11.930;2022-12-10T13:31:33;34.40;;;31.20;;
27800;SDS011;15181;49.112;11.930;2022-12-10T13:37:04;33.10;;;30.23;;
27800;SDS011;15181;49.112;11.930;2022-12-10T13:39:45;33.58;;;30.58;;
27800;SDS011;15181;49.112;11.930;2022-12-10T13:42:29;33.10;;;30.10;;
27800;SDS011;15181;49.112;11.930;2022-12-10T13:45:27;34.65;;;31.23;;
27800;SDS011;15181;49.112;11.930;2022-12-10T13:50:43;34.20;;;30.90;;
27800;SDS011;15181;49.112;11.930;2022-12-10T13:53:16;32.78;;;29.88;;
27800;SDS011;15181;49.112;11.930;2022-12-10T13:55:53;33.72;;;30.77;;
27800;SDS011;15181;49.112;11.930;2022-12-10T13:58:32;34.35;;;31.15;;
27800;SDS011;15181;49.112;11.930;2022-12-10T14:01:11;34.58;;;31.27;;
27800;SDS011;15181;49.112;11.930;2022-12-10T14:06:34;34.17;;;30.95;;
27800;SDS011;15181;49.112;11.930;2022-12-10T14:09:05;32.95;;;29.92;;
27800;SDS011;15181;49.112;11.930;2022-12-10T14:11:38;34.72;;;31.42;;
27800;SDS011;15181;49.112;11.930;2022-12-10T14:14:13;34.72;;;31.42;;
27800;SDS011;15181;49.112;11.930;2022-12-10T14:16:48;33.95;;;30.77;;
27800;SDS011;15181;49.112;11.930;2022-12-10T14:19:15;33.55;;;30.40;;
27800;SDS011;15181;49.112;11.930;2022-12-10T14:21:44;32.33;;;29.35;;
27800;SDS011;15181;49.112;11.930;2022-12-10T14:26:56;33.83;;;30.63;;
27800;SDS011;15181;49.112;11.930;2022-12-10T14:29:26;35.47;;;32.17;;
27800;SDS011;15181;49.112;11.930;2022-12-10T14:31:54;33.05;;;29.90;;
27800;SDS011;15181;49.112;11.930;2022-12-10T14:34:23;33.65;;;30.60;;
27800;SDS011;15181;49.112;11.930;2022-12-10T14:36:54;35.20;;;31.92;;
27800;SDS011;15181;49.112;11.930;2022-12-10T14:39:25;35.17;;;32.08;;
27800;SDS011;15181;49.112;11.930;2022-12-10T14:41:55;32.60;;;29.75;;
27800;SDS011;15181;49.112;11.930;2022-12-10T14:44:26;34.17;;;31.15;;
27800;SDS011;15181;49.112;11.930;2022-12-10T14:47:02;33.95;;;30.75;;
27800;SDS011;15181;49.112;11.930;2022-12-10T14:49:31;33.95;;;30.77;;
27800;SDS011;15181;49.112;11.930;2022-12-10T14:52:07;36.25;;;32.78;;
27800;SDS011;15181;49.112;11.930;2022-12-10T14:54:40;35.97;;;32.53;;
27800;SDS011;15181;49.112;11.930;2022-12-10T14:57:08;34.72;;;31.30;;